sensor_id;sensor_type;location;lat;lon;timestamp;P1;durP1;ratioP1;P2;durP2;ratioP2
10313;SDS011;5202;49.138;10.090;2023-11-21T00:00:07;3.27;;;1.50;;
10313;SDS011;5202;49.138;10.090;2023-11-21T00:02:40;3.70;;;1.90;;
10313;SDS011;5202;49.138;10.090;2023-11-21T00:05:11;2.67;;;1.70;;
10313;SDS011;5202;49.138;10.090;2023-11-21T00:07:41;4.13;;;1.60;;
10313;SDS011;5202;49.138;10.090;2023-11-21T00:10:11;3.50;;;2.10;;
10313;SDS011;5202;49.138;10.090;2023-11-21T00:12:43;5.83;;;2.00;;
10313;SDS011;5202;49.138;10.090;2023-11-21T00:15:14;3.80;;;1.60;;
10313;SDS011;5202;49.138;10.090;2023-11-21T00:17:43;3.30;;;1.80;;
10313;SDS011;5202;49.138;10.090;2023-11-21T00:20:12;6.00;;;1.83;;
10313;SDS011;5202;49.138;10.090;2023-11-21T00:22:41;4.10;;;1.73;;
10313;SDS011;5202;49.138;10.090;2023-11-21T00:25:10;4.33;;;1.50;;
10313;SDS011;5202;49.138;10.090;2023-11-21T00:27:42;5.13;;;1.77;;
10313;SDS011;5202;49.138;10.090;2023-11-21T00:30:11;5.83;;;2.50;;
10313;SDS011;5202;49.138;10.090;2023-11-21T00:32:41;3.77;;;1.67;;
10313;SDS011;5202;49.138;10.090;2023-11-21T00:35:10;3.57;;;1.40;;
10313;SDS011;5202;49.138;10.090;2023-11-21T00:37:39;3.20;;;1.40;;
10313;SDS011;5202;49.138;10.090;2023-11-21T00:40:09;4.23;;;1.60;;
10313;SDS011;5202;49.138;10.090;2023-11-21T00:42:39;3.70;;;1.70;;
10313;SDS011;5202;49.138;10.090;2023-11-21T00:45:08;4.27;;;1.53;;
10313;SDS011;5202;49.138;10.090;2023-11-21T00:47:37;5.27;;;1.77;;
10313;SDS011;5202;49.138;10.090;2023-11-21T00:50:06;3.60;;;1.60;;
10313;SDS011;5202;49.138;10.090;2023-11-21T00:52:36;5.63;;;1.87;;
10313;SDS011;5202;49.138;10.090;2023-11-21T00:55:07;2.90;;;1.77;;
10313;SDS011;5202;49.138;10.090;2023-11-21T00:57:36;4.20;;;1.40;;
10313;SDS011;5202;49.138;10.090;2023-11-21T01:00:05;5.77;;;1.53;;
10313;SDS011;5202;49.138;10.090;2023-11-21T01:02:40;4.37;;;1.23;;
10313;SDS011;5202;49.138;10.090;2023-11-21T01:05:17;4.23;;;1.50;;
10313;SDS011;5202;49.138;10.090;2023-11-21T01:07:46;5.50;;;1.60;;
10313;SDS011;5202;49.138;10.090;2023-11-21T01:10:17;3.83;;;1.70;;
10313;SDS011;5202;49.138;10.090;2023-11-21T01:12:46;2.67;;;1.30;;
10313;SDS011;5202;49.138;10.090;2023-11-21T01:15:15;3.67;;;1.63;;
10313;SDS011;5202;49.138;10.090;2023-11-21T01:17:44;2.20;;;1.40;;
10313;SDS011;5202;49.138;10.090;2023-11-21T01:20:12;3.73;;;1.50;;
10313;SDS011;5202;49.138;10.090;2023-11-21T01:22:41;2.80;;;1.47;;
10313;SDS011;5202;49.138;10.090;2023-11-21T01:25:10;2.30;;;1.30;;
10313;SDS011;5202;49.138;10.090;2023-11-21T01:27:43;2.40;;;1.20;;
10313;SDS011;5202;49.138;10.090;2023-11-21T01:30:11;4.60;;;1.47;;
10313;SDS011;5202;49.138;10.090;2023-11-21T01:32:41;3.10;;;1.30;;
10313;SDS011;5202;49.138;10.090;2023-11-21T01:35:10;2.80;;;1.37;;
10313;SDS011;5202;49.138;10.090;2023-11-21T01:37:38;3.20;;;1.43;;
10313;SDS011;5202;49.138;10.090;2023-11-21T01:40:07;1.97;;;1.23;;
10313;SDS011;5202;49.138;10.090;2023-11-21T01:42:42;2.03;;;1.10;;
10313;SDS011;5202;49.138;10.090;2023-11-21T01:45:11;2.47;;;1.23;;
10313;SDS011;5202;49.138;10.090;2023-11-21T01:47:40;1.17;;;1.00;;
10313;SDS011;5202;49.138;10.090;2023-11-21T01:50:12;2.30;;;1.20;;
10313;SDS011;5202;49.138;10.090;2023-11-21T01:52:43;2.93;;;1.10;;
10313;SDS011;5202;49.138;10.090;2023-11-21T01:55:14;3.43;;;1.50;;
10313;SDS011;5202;49.138;10.090;2023-11-21T01:57:55;2.53;;;1.20;;
10313;SDS011;5202;49.138;10.090;2023-11-21T02:00:24;2.07;;;1.00;;
10313;SDS011;5202;49.138;10.090;2023-11-21T02:02:55;2.67;;;1.30;;
10313;SDS011;5202;49.138;10.090;2023-11-21T02:05:24;2.20;;;1.20;;
10313;SDS011;5202;49.138;10.090;2023-11-21T02:07:53;2.00;;;1.20;;
10313;SDS011;5202;49.138;10.090;2023-11-21T02:10:21;1.60;;;0.93;;
10313;SDS011;5202;49.138;10.090;2023-11-21T02:12:51;3.63;;;1.10;;
10313;SDS011;5202;49.138;10.090;2023-11-21T02:15:21;2.13;;;1.10;;
10313;SDS011;5202;49.138;10.090;2023-11-21T02:17:54;3.47;;;1.10;;
10313;SDS011;5202;49.138;10.090;2023-11-21T02:20:25;2.13;;;1.10;;
10313;SDS011;5202;49.138;10.090;2023-11-21T02:22:57;2.23;;;1.20;;
10313;SDS011;5202;49.138;10.090;2023-11-21T02:25:28;2.50;;;1.40;;
10313;SDS011;5202;49.138;10.090;2023-11-21T02:27:59;2.43;;;0.90;;
10313;SDS011;5202;49.138;10.090;2023-11-21T02:30:29;3.63;;;1.40;;
10313;SDS011;5202;49.138;10.090;2023-11-21T02:32:59;2.60;;;1.27;;
10313;SDS011;5202;49.138;10.090;2023-11-21T02:35:30;2.17;;;1.37;;
10313;SDS011;5202;49.138;10.090;2023-11-21T02:38:00;2.57;;;1.40;;
10313;SDS011;5202;49.138;10.090;2023-11-21T02:40:29;5.40;;;1.40;;
10313;SDS011;5202;49.138;10.090;2023-11-21T02:42:58;4.70;;;1.60;;
10313;SDS011;5202;49.138;10.090;2023-11-21T02:45:27;4.43;;;1.60;;
10313;SDS011;5202;49.138;10.090;2023-11-21T02:47:55;3.40;;;1.50;;
10313;SDS011;5202;49.138;10.090;2023-11-21T02:50:25;1.77;;;1.30;;
10313;SDS011;5202;49.138;10.090;2023-11-21T02:52:54;2.93;;;1.40;;
10313;SDS011;5202;49.138;10.090;2023-11-21T02:55:26;3.43;;;1.60;;
10313;SDS011;5202;49.138;10.090;2023-11-21T02:57:54;3.47;;;1.73;;
10313;SDS011;5202;49.138;10.090;2023-11-21T03:00:23;3.03;;;1.67;;
10313;SDS011;5202;49.138;10.090;2023-11-21T03:02:54;4.77;;;1.50;;
10313;SDS011;5202;49.138;10.090;2023-11-21T03:05:25;4.10;;;1.37;;
10313;SDS011;5202;49.138;10.090;2023-11-21T03:08:03;2.53;;;1.50;;
10313;SDS011;5202;49.138;10.090;2023-11-21T03:10:33;3.17;;;1.73;;
10313;SDS011;5202;49.138;10.090;2023-11-21T03:13:02;4.33;;;1.80;;
10313;SDS011;5202;49.138;10.090;2023-11-21T03:15:31;3.57;;;1.50;;
10313;SDS011;5202;49.138;10.090;2023-11-21T03:17:59;5.90;;;1.90;;
10313;SDS011;5202;49.138;10.090;2023-11-21T03:20:29;2.20;;;1.63;;
10313;SDS011;5202;49.138;10.090;2023-11-21T03:22:57;2.27;;;1.70;;
10313;SDS011;5202;49.138;10.090;2023-11-21T03:25:27;3.70;;;1.67;;
10313;SDS011;5202;49.138;10.090;2023-11-21T03:27:57;2.67;;;1.63;;
10313;SDS011;5202;49.138;10.090;2023-11-21T03:30:26;5.53;;;1.80;;
10313;SDS011;5202;49.138;10.090;2023-11-21T03:32:54;3.43;;;1.80;;
10313;SDS011;5202;49.138;10.090;2023-11-21T03:35:23;3.83;;;1.90;;
10313;SDS011;5202;49.138;10.090;2023-11-21T03:37:51;3.17;;;1.80;;
10313;SDS011;5202;49.138;10.090;2023-11-21T03:40:21;5.27;;;1.93;;
10313;SDS011;5202;49.138;10.090;2023-11-21T03:42:50;6.30;;;2.57;;
10313;SDS011;5202;49.138;10.090;2023-11-21T03:45:21;7.13;;;2.07;;
10313;SDS011;5202;49.138;10.090;2023-11-21T03:47:49;5.40;;;2.00;;
10313;SDS011;5202;49.138;10.090;2023-11-21T03:50:18;4.73;;;1.80;;
10313;SDS011;5202;49.138;10.090;2023-11-21T03:52:46;4.23;;;2.10;;
10313;SDS011;5202;49.138;10.090;2023-11-21T03:55:15;3.70;;;2.10;;
10313;SDS011;5202;49.138;10.090;2023-11-21T03:57:43;2.63;;;1.90;;
10313;SDS011;5202;49.138;10.090;2023-11-21T04:00:12;2.73;;;1.60;;
10313;SDS011;5202;49.138;10.090;2023-11-21T04:02:42;3.67;;;2.03;;
10313;SDS011;5202;49.138;10.090;2023-11-21T04:05:11;2.90;;;1.97;;
10313;SDS011;5202;49.138;10.090;2023-11-21T04:07:40;3.80;;;2.40;;
10313;SDS011;5202;49.138;10.090;2023-11-21T04:10:08;4.70;;;2.10;;
10313;SDS011;5202;49.138;10.090;2023-11-21T04:12:39;2.83;;;1.90;;
10313;SDS011;5202;49.138;10.090;2023-11-21T04:15:08;1.90;;;1.73;;
10313;SDS011;5202;49.138;10.090;2023-11-21T04:17:38;4.60;;;1.87;;
10313;SDS011;5202;49.138;10.090;2023-11-21T04:20:09;3.17;;;2.23;;
10313;SDS011;5202;49.138;10.090;2023-11-21T04:22:38;2.07;;;1.87;;
10313;SDS011;5202;49.138;10.090;2023-11-21T04:25:11;3.27;;;1.93;;
10313;SDS011;5202;49.138;10.090;2023-11-21T04:27:43;2.43;;;1.83;;
10313;SDS011;5202;49.138;10.090;2023-11-21T04:30:14;3.27;;;2.97;;
10313;SDS011;5202;49.138;10.090;2023-11-21T04:32:42;3.20;;;2.83;;
10313;SDS011;5202;49.138;10.090;2023-11-21T04:35:12;4.90;;;2.23;;
10313;SDS011;5202;49.138;10.090;2023-11-21T04:37:41;2.90;;;2.00;;
10313;SDS011;5202;49.138;10.090;2023-11-21T04:40:10;2.20;;;2.00;;
10313;SDS011;5202;49.138;10.090;2023-11-21T04:42:39;4.90;;;2.23;;
10313;SDS011;5202;49.138;10.090;2023-11-21T04:45:08;3.67;;;2.20;;
10313;SDS011;5202;49.138;10.090;2023-11-21T04:47:40;3.17;;;2.30;;
10313;SDS011;5202;49.138;10.090;2023-11-21T04:50:10;4.33;;;3.40;;
10313;SDS011;5202;49.138;10.090;2023-11-21T04:52:40;3.10;;;2.00;;
10313;SDS011;5202;49.138;10.090;2023-11-21T04:55:08;3.67;;;2.37;;
10313;SDS011;5202;49.138;10.090;2023-11-21T04:57:38;6.20;;;2.30;;
10313;SDS011;5202;49.138;10.090;2023-11-21T05:00:09;3.50;;;2.33;;
10313;SDS011;5202;49.138;10.090;2023-11-21T05:02:40;2.87;;;2.33;;
10313;SDS011;5202;49.138;10.090;2023-11-21T05:05:13;2.60;;;2.17;;
10313;SDS011;5202;49.138;10.090;2023-11-21T05:07:42;3.73;;;2.40;;
10313;SDS011;5202;49.138;10.090;2023-11-21T05:10:10;3.43;;;2.27;;
10313;SDS011;5202;49.138;10.090;2023-11-21T05:12:41;3.00;;;2.10;;
10313;SDS011;5202;49.138;10.090;2023-11-21T05:15:12;2.97;;;2.37;;
10313;SDS011;5202;49.138;10.090;2023-11-21T05:17:42;3.07;;;2.00;;
10313;SDS011;5202;49.138;10.090;2023-11-21T05:20:14;4.17;;;1.90;;
10313;SDS011;5202;49.138;10.090;2023-11-21T05:22:47;3.80;;;2.40;;
10313;SDS011;5202;49.138;10.090;2023-11-21T05:25:16;3.57;;;2.30;;
10313;SDS011;5202;49.138;10.090;2023-11-21T05:27:46;2.37;;;2.17;;
10313;SDS011;5202;49.138;10.090;2023-11-21T05:30:15;5.67;;;2.43;;
10313;SDS011;5202;49.138;10.090;2023-11-21T05:32:44;4.40;;;2.57;;
10313;SDS011;5202;49.138;10.090;2023-11-21T05:35:15;3.53;;;2.33;;
10313;SDS011;5202;49.138;10.090;2023-11-21T05:37:45;5.63;;;2.50;;
10313;SDS011;5202;49.138;10.090;2023-11-21T05:40:14;3.67;;;2.00;;
10313;SDS011;5202;49.138;10.090;2023-11-21T05:42:43;4.63;;;2.40;;
10313;SDS011;5202;49.138;10.090;2023-11-21T05:45:12;4.13;;;2.43;;
10313;SDS011;5202;49.138;10.090;2023-11-21T05:47:43;3.13;;;2.40;;
10313;SDS011;5202;49.138;10.090;2023-11-21T05:50:14;6.07;;;2.80;;
10313;SDS011;5202;49.138;10.090;2023-11-21T05:52:45;6.23;;;3.10;;
10313;SDS011;5202;49.138;10.090;2023-11-21T05:55:15;3.33;;;2.70;;
10313;SDS011;5202;49.138;10.090;2023-11-21T05:57:44;6.73;;;3.47;;
10313;SDS011;5202;49.138;10.090;2023-11-21T06:00:13;5.57;;;2.83;;
10313;SDS011;5202;49.138;10.090;2023-11-21T06:02:48;3.87;;;2.80;;
10313;SDS011;5202;49.138;10.090;2023-11-21T06:05:23;6.07;;;3.37;;
10313;SDS011;5202;49.138;10.090;2023-11-21T06:07:53;7.87;;;2.90;;
10313;SDS011;5202;49.138;10.090;2023-11-21T06:10:25;4.53;;;3.20;;
10313;SDS011;5202;49.138;10.090;2023-11-21T06:12:55;3.07;;;2.73;;
10313;SDS011;5202;49.138;10.090;2023-11-21T06:15:29;7.37;;;3.33;;
10313;SDS011;5202;49.138;10.090;2023-11-21T06:17:57;5.43;;;3.17;;
10313;SDS011;5202;49.138;10.090;2023-11-21T06:20:28;7.10;;;3.10;;
10313;SDS011;5202;49.138;10.090;2023-11-21T06:22:57;4.83;;;3.50;;
10313;SDS011;5202;49.138;10.090;2023-11-21T06:25:30;6.43;;;2.90;;
10313;SDS011;5202;49.138;10.090;2023-11-21T06:27:59;4.80;;;3.07;;
10313;SDS011;5202;49.138;10.090;2023-11-21T06:30:28;5.03;;;2.80;;
10313;SDS011;5202;49.138;10.090;2023-11-21T06:32:57;6.70;;;3.00;;
10313;SDS011;5202;49.138;10.090;2023-11-21T06:35:27;4.50;;;2.40;;
10313;SDS011;5202;49.138;10.090;2023-11-21T06:37:59;3.07;;;2.63;;
10313;SDS011;5202;49.138;10.090;2023-11-21T06:40:28;4.23;;;2.80;;
10313;SDS011;5202;49.138;10.090;2023-11-21T06:42:56;3.13;;;2.27;;
10313;SDS011;5202;49.138;10.090;2023-11-21T06:45:26;3.97;;;2.40;;
10313;SDS011;5202;49.138;10.090;2023-11-21T06:47:55;2.93;;;2.67;;
10313;SDS011;5202;49.138;10.090;2023-11-21T06:50:23;3.13;;;2.47;;
10313;SDS011;5202;49.138;10.090;2023-11-21T06:52:54;3.97;;;2.63;;
10313;SDS011;5202;49.138;10.090;2023-11-21T06:55:23;3.67;;;2.53;;
10313;SDS011;5202;49.138;10.090;2023-11-21T06:57:51;3.70;;;3.00;;
10313;SDS011;5202;49.138;10.090;2023-11-21T07:00:20;5.67;;;3.47;;
10313;SDS011;5202;49.138;10.090;2023-11-21T07:02:48;3.77;;;2.90;;
10313;SDS011;5202;49.138;10.090;2023-11-21T07:05:19;4.50;;;2.97;;
10313;SDS011;5202;49.138;10.090;2023-11-21T07:07:49;4.97;;;3.67;;
10313;SDS011;5202;49.138;10.090;2023-11-21T07:10:22;4.43;;;2.70;;
10313;SDS011;5202;49.138;10.090;2023-11-21T07:12:52;5.63;;;3.30;;
10313;SDS011;5202;49.138;10.090;2023-11-21T07:15:20;4.13;;;3.30;;
10313;SDS011;5202;49.138;10.090;2023-11-21T07:17:49;3.43;;;3.00;;
10313;SDS011;5202;49.138;10.090;2023-11-21T07:20:18;5.43;;;3.70;;
10313;SDS011;5202;49.138;10.090;2023-11-21T07:22:47;7.37;;;4.20;;
10313;SDS011;5202;49.138;10.090;2023-11-21T07:25:16;5.13;;;3.07;;
10313;SDS011;5202;49.138;10.090;2023-11-21T07:27:46;6.40;;;3.73;;
10313;SDS011;5202;49.138;10.090;2023-11-21T07:30:16;3.73;;;3.00;;
10313;SDS011;5202;49.138;10.090;2023-11-21T07:32:46;3.73;;;3.10;;
10313;SDS011;5202;49.138;10.090;2023-11-21T07:35:15;6.57;;;4.90;;
10313;SDS011;5202;49.138;10.090;2023-11-21T07:37:43;9.03;;;6.27;;
10313;SDS011;5202;49.138;10.090;2023-11-21T07:40:14;5.80;;;3.93;;
10313;SDS011;5202;49.138;10.090;2023-11-21T07:42:44;6.20;;;4.43;;
10313;SDS011;5202;49.138;10.090;2023-11-21T07:45:15;6.50;;;4.40;;
10313;SDS011;5202;49.138;10.090;2023-11-21T07:47:44;7.47;;;4.27;;
10313;SDS011;5202;49.138;10.090;2023-11-21T07:50:13;4.77;;;3.10;;
10313;SDS011;5202;49.138;10.090;2023-11-21T07:52:41;6.40;;;2.90;;
10313;SDS011;5202;49.138;10.090;2023-11-21T07:55:10;3.00;;;2.50;;
10313;SDS011;5202;49.138;10.090;2023-11-21T07:57:39;4.33;;;2.47;;
10313;SDS011;5202;49.138;10.090;2023-11-21T08:00:10;3.07;;;2.30;;
10313;SDS011;5202;49.138;10.090;2023-11-21T08:03:05;5.23;;;2.77;;
10313;SDS011;5202;49.138;10.090;2023-11-21T08:05:35;4.80;;;2.83;;
10313;SDS011;5202;49.138;10.090;2023-11-21T08:08:06;4.33;;;2.80;;
10313;SDS011;5202;49.138;10.090;2023-11-21T08:10:35;4.90;;;2.57;;
10313;SDS011;5202;49.138;10.090;2023-11-21T08:13:05;2.60;;;2.40;;
10313;SDS011;5202;49.138;10.090;2023-11-21T08:15:38;4.60;;;2.50;;
10313;SDS011;5202;49.138;10.090;2023-11-21T08:18:07;4.67;;;2.93;;
10313;SDS011;5202;49.138;10.090;2023-11-21T08:20:37;4.00;;;2.70;;
10313;SDS011;5202;49.138;10.090;2023-11-21T08:23:06;2.30;;;2.10;;
10313;SDS011;5202;49.138;10.090;2023-11-21T08:25:36;4.50;;;2.57;;
10313;SDS011;5202;49.138;10.090;2023-11-21T08:28:05;5.07;;;2.40;;
10313;SDS011;5202;49.138;10.090;2023-11-21T08:30:33;4.30;;;2.70;;
10313;SDS011;5202;49.138;10.090;2023-11-21T08:33:04;3.27;;;2.70;;
10313;SDS011;5202;49.138;10.090;2023-11-21T08:35:32;3.43;;;2.80;;
10313;SDS011;5202;49.138;10.090;2023-11-21T08:38:01;3.00;;;2.20;;
10313;SDS011;5202;49.138;10.090;2023-11-21T08:40:30;2.80;;;2.40;;
10313;SDS011;5202;49.138;10.090;2023-11-21T08:42:59;2.47;;;2.03;;
10313;SDS011;5202;49.138;10.090;2023-11-21T08:45:32;3.80;;;2.03;;
10313;SDS011;5202;49.138;10.090;2023-11-21T08:48:04;2.53;;;2.23;;
10313;SDS011;5202;49.138;10.090;2023-11-21T08:50:33;3.43;;;2.33;;
10313;SDS011;5202;49.138;10.090;2023-11-21T08:53:02;2.50;;;1.80;;
10313;SDS011;5202;49.138;10.090;2023-11-21T08:55:32;1.60;;;1.50;;
10313;SDS011;5202;49.138;10.090;2023-11-21T08:58:04;2.23;;;1.90;;
10313;SDS011;5202;49.138;10.090;2023-11-21T09:00:33;1.90;;;1.80;;
10313;SDS011;5202;49.138;10.090;2023-11-21T09:03:06;2.07;;;1.87;;
10313;SDS011;5202;49.138;10.090;2023-11-21T09:05:37;2.63;;;1.80;;
10313;SDS011;5202;49.138;10.090;2023-11-21T09:08:08;2.63;;;1.60;;
10313;SDS011;5202;49.138;10.090;2023-11-21T09:10:36;1.60;;;1.50;;
10313;SDS011;5202;49.138;10.090;2023-11-21T09:13:07;3.17;;;2.87;;
10313;SDS011;5202;49.138;10.090;2023-11-21T09:15:39;1.80;;;1.70;;
10313;SDS011;5202;49.138;10.090;2023-11-21T09:18:11;1.70;;;1.60;;
10313;SDS011;5202;49.138;10.090;2023-11-21T09:20:42;1.60;;;1.47;;
10313;SDS011;5202;49.138;10.090;2023-11-21T09:23:11;2.13;;;1.90;;
10313;SDS011;5202;49.138;10.090;2023-11-21T09:25:42;1.83;;;1.57;;
10313;SDS011;5202;49.138;10.090;2023-11-21T09:28:13;1.73;;;1.63;;
10313;SDS011;5202;49.138;10.090;2023-11-21T09:30:41;2.67;;;1.93;;
10313;SDS011;5202;49.138;10.090;2023-11-21T09:33:11;2.60;;;1.77;;
10313;SDS011;5202;49.138;10.090;2023-11-21T09:35:41;2.07;;;1.80;;
10313;SDS011;5202;49.138;10.090;2023-11-21T09:38:10;2.20;;;2.00;;
10313;SDS011;5202;49.138;10.090;2023-11-21T09:40:39;2.23;;;1.77;;
10313;SDS011;5202;49.138;10.090;2023-11-21T09:43:09;2.20;;;1.70;;
10313;SDS011;5202;49.138;10.090;2023-11-21T09:45:45;1.80;;;1.70;;
10313;SDS011;5202;49.138;10.090;2023-11-21T09:48:18;2.30;;;1.90;;
10313;SDS011;5202;49.138;10.090;2023-11-21T09:50:50;2.23;;;2.07;;
10313;SDS011;5202;49.138;10.090;2023-11-21T09:53:22;2.00;;;1.80;;
10313;SDS011;5202;49.138;10.090;2023-11-21T09:55:51;2.37;;;2.17;;
10313;SDS011;5202;49.138;10.090;2023-11-21T09:58:24;3.53;;;2.33;;
10313;SDS011;5202;49.138;10.090;2023-11-21T10:00:55;2.63;;;2.30;;
10313;SDS011;5202;49.138;10.090;2023-11-21T10:03:28;2.40;;;2.20;;
10313;SDS011;5202;49.138;10.090;2023-11-21T10:05:57;2.50;;;2.30;;
10313;SDS011;5202;49.138;10.090;2023-11-21T10:08:31;2.93;;;2.20;;
10313;SDS011;5202;49.138;10.090;2023-11-21T10:11:15;2.17;;;1.97;;
10313;SDS011;5202;49.138;10.090;2023-11-21T10:13:48;3.20;;;2.03;;
10313;SDS011;5202;49.138;10.090;2023-11-21T10:16:20;2.37;;;2.23;;
10313;SDS011;5202;49.138;10.090;2023-11-21T10:18:55;3.33;;;2.40;;
10313;SDS011;5202;49.138;10.090;2023-11-21T10:21:37;2.70;;;1.90;;
10313;SDS011;5202;49.138;10.090;2023-11-21T10:24:06;2.93;;;2.70;;
10313;SDS011;5202;49.138;10.090;2023-11-21T10:26:38;2.70;;;2.50;;
10313;SDS011;5202;49.138;10.090;2023-11-21T10:29:18;5.73;;;2.63;;
10313;SDS011;5202;49.138;10.090;2023-11-21T10:31:49;4.67;;;3.67;;
10313;SDS011;5202;49.138;10.090;2023-11-21T10:34:21;4.57;;;2.70;;
10313;SDS011;5202;49.138;10.090;2023-11-21T10:36:50;5.97;;;4.07;;
10313;SDS011;5202;49.138;10.090;2023-11-21T10:39:20;8.87;;;5.40;;
10313;SDS011;5202;49.138;10.090;2023-11-21T10:41:50;3.13;;;2.80;;
10313;SDS011;5202;49.138;10.090;2023-11-21T10:44:19;8.37;;;6.03;;
10313;SDS011;5202;49.138;10.090;2023-11-21T10:46:50;8.73;;;5.50;;
10313;SDS011;5202;49.138;10.090;2023-11-21T10:49:25;3.33;;;2.53;;
10313;SDS011;5202;49.138;10.090;2023-11-21T10:51:55;2.43;;;1.93;;
10313;SDS011;5202;49.138;10.090;2023-11-21T10:54:24;16.47;;;9.97;;
10313;SDS011;5202;49.138;10.090;2023-11-21T10:56:57;7.70;;;2.70;;
10313;SDS011;5202;49.138;10.090;2023-11-21T10:59:29;3.43;;;2.20;;
10313;SDS011;5202;49.138;10.090;2023-11-21T11:01:59;5.70;;;2.40;;
10313;SDS011;5202;49.138;10.090;2023-11-21T11:04:38;13.00;;;11.63;;
10313;SDS011;5202;49.138;10.090;2023-11-21T11:07:07;8.10;;;6.60;;
10313;SDS011;5202;49.138;10.090;2023-11-21T11:09:39;1.90;;;1.77;;
10313;SDS011;5202;49.138;10.090;2023-11-21T11:12:08;1.17;;;1.10;;
10313;SDS011;5202;49.138;10.090;2023-11-21T11:14:36;1.20;;;1.07;;
10313;SDS011;5202;49.138;10.090;2023-11-21T11:17:10;2.03;;;1.10;;
10313;SDS011;5202;49.138;10.090;2023-11-21T11:19:41;1.23;;;1.10;;
10313;SDS011;5202;49.138;10.090;2023-11-21T11:22:16;1.00;;;1.00;;
10313;SDS011;5202;49.138;10.090;2023-11-21T11:25:08;0.90;;;0.90;;
10313;SDS011;5202;49.138;10.090;2023-11-21T11:27:58;0.70;;;0.70;;
10313;SDS011;5202;49.138;10.090;2023-11-21T11:30:36;0.90;;;0.90;;
10313;SDS011;5202;49.138;10.090;2023-11-21T11:33:21;2.30;;;0.60;;
10313;SDS011;5202;49.138;10.090;2023-11-21T11:36:05;0.80;;;0.80;;
10313;SDS011;5202;49.138;10.090;2023-11-21T11:38:44;11.93;;;6.60;;
10313;SDS011;5202;49.138;10.090;2023-11-21T11:41:23;19.93;;;11.40;;
10313;SDS011;5202;49.138;10.090;2023-11-21T11:43:54;6.13;;;4.70;;
10313;SDS011;5202;49.138;10.090;2023-11-21T11:46:40;3.30;;;2.77;;
10313;SDS011;5202;49.138;10.090;2023-11-21T11:49:09;2.63;;;2.40;;
10313;SDS011;5202;49.138;10.090;2023-11-21T11:51:39;1.97;;;1.70;;
10313;SDS011;5202;49.138;10.090;2023-11-21T11:54:07;1.80;;;1.57;;
10313;SDS011;5202;49.138;10.090;2023-11-21T11:56:37;3.67;;;1.80;;
10313;SDS011;5202;49.138;10.090;2023-11-21T11:59:07;5.00;;;4.10;;
10313;SDS011;5202;49.138;10.090;2023-11-21T12:01:37;8.00;;;5.73;;
10313;SDS011;5202;49.138;10.090;2023-11-21T12:04:25;5.57;;;4.23;;
10313;SDS011;5202;49.138;10.090;2023-11-21T12:07:11;13.70;;;9.13;;
10313;SDS011;5202;49.138;10.090;2023-11-21T12:09:42;6.30;;;3.90;;
10313;SDS011;5202;49.138;10.090;2023-11-21T12:12:09;3.43;;;2.37;;
10313;SDS011;5202;49.138;10.090;2023-11-21T12:14:38;9.00;;;4.97;;
10313;SDS011;5202;49.138;10.090;2023-11-21T12:17:10;3.83;;;2.70;;
10313;SDS011;5202;49.138;10.090;2023-11-21T12:19:43;4.00;;;2.67;;
10313;SDS011;5202;49.138;10.090;2023-11-21T12:22:15;2.57;;;2.00;;
10313;SDS011;5202;49.138;10.090;2023-11-21T12:24:45;3.00;;;2.67;;
10313;SDS011;5202;49.138;10.090;2023-11-21T12:27:14;4.07;;;3.20;;
10313;SDS011;5202;49.138;10.090;2023-11-21T12:29:43;7.07;;;5.20;;
10313;SDS011;5202;49.138;10.090;2023-11-21T12:32:11;10.47;;;6.33;;
10313;SDS011;5202;49.138;10.090;2023-11-21T12:34:43;6.80;;;3.17;;
10313;SDS011;5202;49.138;10.090;2023-11-21T12:37:13;5.57;;;3.90;;
10313;SDS011;5202;49.138;10.090;2023-11-21T12:39:42;8.43;;;4.57;;
10313;SDS011;5202;49.138;10.090;2023-11-21T12:42:11;7.77;;;6.30;;
10313;SDS011;5202;49.138;10.090;2023-11-21T12:44:45;16.73;;;11.10;;
10313;SDS011;5202;49.138;10.090;2023-11-21T12:47:16;7.53;;;5.23;;
10313;SDS011;5202;49.138;10.090;2023-11-21T12:49:48;22.87;;;13.73;;
10313;SDS011;5202;49.138;10.090;2023-11-21T12:52:17;12.23;;;7.77;;
10313;SDS011;5202;49.138;10.090;2023-11-21T12:54:47;13.97;;;9.30;;
10313;SDS011;5202;49.138;10.090;2023-11-21T12:57:16;24.27;;;14.07;;
10313;SDS011;5202;49.138;10.090;2023-11-21T12:59:45;15.20;;;11.37;;
10313;SDS011;5202;49.138;10.090;2023-11-21T13:02:13;6.30;;;4.33;;
10313;SDS011;5202;49.138;10.090;2023-11-21T13:04:51;7.20;;;6.43;;
10313;SDS011;5202;49.138;10.090;2023-11-21T13:07:20;6.10;;;5.50;;
10313;SDS011;5202;49.138;10.090;2023-11-21T13:09:52;5.90;;;5.07;;
10313;SDS011;5202;49.138;10.090;2023-11-21T13:12:23;25.27;;;19.53;;
10313;SDS011;5202;49.138;10.090;2023-11-21T13:14:52;17.60;;;11.97;;
10313;SDS011;5202;49.138;10.090;2023-11-21T13:17:21;10.10;;;8.10;;
10313;SDS011;5202;49.138;10.090;2023-11-21T13:19:51;8.67;;;7.23;;
10313;SDS011;5202;49.138;10.090;2023-11-21T13:22:21;8.97;;;6.50;;
10313;SDS011;5202;49.138;10.090;2023-11-21T13:24:55;8.30;;;6.50;;
10313;SDS011;5202;49.138;10.090;2023-11-21T13:27:24;10.07;;;7.83;;
10313;SDS011;5202;49.138;10.090;2023-11-21T13:29:53;6.97;;;6.23;;
10313;SDS011;5202;49.138;10.090;2023-11-21T13:32:22;6.13;;;5.30;;
10313;SDS011;5202;49.138;10.090;2023-11-21T13:34:52;5.43;;;3.80;;
10313;SDS011;5202;49.138;10.090;2023-11-21T13:37:21;6.33;;;3.93;;
10313;SDS011;5202;49.138;10.090;2023-11-21T13:39:51;4.67;;;3.93;;
10313;SDS011;5202;49.138;10.090;2023-11-21T13:42:23;3.53;;;3.20;;
10313;SDS011;5202;49.138;10.090;2023-11-21T13:44:56;5.63;;;3.93;;
10313;SDS011;5202;49.138;10.090;2023-11-21T13:47:25;5.53;;;4.00;;
10313;SDS011;5202;49.138;10.090;2023-11-21T13:49:56;4.17;;;3.37;;
10313;SDS011;5202;49.138;10.090;2023-11-21T13:52:27;5.13;;;4.50;;
10313;SDS011;5202;49.138;10.090;2023-11-21T13:54:58;5.10;;;3.30;;
10313;SDS011;5202;49.138;10.090;2023-11-21T13:57:31;2.90;;;2.60;;
10313;SDS011;5202;49.138;10.090;2023-11-21T13:59:59;4.50;;;2.80;;
10313;SDS011;5202;49.138;10.090;2023-11-21T14:02:29;2.83;;;2.47;;
10313;SDS011;5202;49.138;10.090;2023-11-21T14:05:05;3.20;;;2.20;;
10313;SDS011;5202;49.138;10.090;2023-11-21T14:07:36;3.53;;;2.90;;
10313;SDS011;5202;49.138;10.090;2023-11-21T14:10:06;27.57;;;18.27;;
10313;SDS011;5202;49.138;10.090;2023-11-21T14:12:41;31.83;;;21.53;;
10313;SDS011;5202;49.138;10.090;2023-11-21T14:15:09;12.50;;;7.97;;
10313;SDS011;5202;49.138;10.090;2023-11-21T14:17:43;15.53;;;9.50;;
10313;SDS011;5202;49.138;10.090;2023-11-21T14:20:12;10.77;;;7.93;;
10313;SDS011;5202;49.138;10.090;2023-11-21T14:22:43;9.77;;;6.90;;
10313;SDS011;5202;49.138;10.090;2023-11-21T14:25:14;18.37;;;13.13;;
10313;SDS011;5202;49.138;10.090;2023-11-21T14:27:45;13.33;;;9.13;;
10313;SDS011;5202;49.138;10.090;2023-11-21T14:30:14;10.50;;;7.57;;
10313;SDS011;5202;49.138;10.090;2023-11-21T14:32:45;10.40;;;6.97;;
10313;SDS011;5202;49.138;10.090;2023-11-21T14:35:15;16.37;;;10.13;;
10313;SDS011;5202;49.138;10.090;2023-11-21T14:37:44;9.23;;;6.93;;
10313;SDS011;5202;49.138;10.090;2023-11-21T14:40:14;8.57;;;6.57;;
10313;SDS011;5202;49.138;10.090;2023-11-21T14:42:46;6.47;;;5.40;;
10313;SDS011;5202;49.138;10.090;2023-11-21T14:45:15;8.90;;;3.77;;
10313;SDS011;5202;49.138;10.090;2023-11-21T14:47:47;9.07;;;6.73;;
10313;SDS011;5202;49.138;10.090;2023-11-21T14:50:24;7.20;;;5.53;;
10313;SDS011;5202;49.138;10.090;2023-11-21T14:53:18;6.90;;;5.30;;
10313;SDS011;5202;49.138;10.090;2023-11-21T14:56:07;59.83;;;31.60;;
10313;SDS011;5202;49.138;10.090;2023-11-21T14:58:38;60.83;;;33.83;;
10313;SDS011;5202;49.138;10.090;2023-11-21T15:01:07;49.83;;;30.37;;
10313;SDS011;5202;49.138;10.090;2023-11-21T15:03:38;40.00;;;24.30;;
10313;SDS011;5202;49.138;10.090;2023-11-21T15:06:17;29.47;;;19.53;;